Madeline — WDE3220 — position and weather

sailwx.info

Track history (hours):
 
Tides and Currents Weather Stations Pressure Air Temp Water Temp Dewpoint Dewpoint Depression Visibility Wind Speed Wind Dir Waves Ship Positions

Madeline

Owner: TUG MADELINE, LLC, NEW CASTLE, DE. More information available from US FCC via Universal Licensing System and Coast Guard Vessel Documentation Center.

Last reported at 2017-Nov-20 00:30 UTC. Time now 2017-Nov-22 01:56 UTC.
Position N 39°43' W 075°31'.

Length 23 m; draft 4.6 m.

Type: Tug. MMSI: 367335830.

Date/timePositionNaut miles runAvg speedWind from/ knotsBaromVisibWave heightAir tempDewpointWater temp
2017-Nov-20 00:30N 39°43' W 075°31'0 0.0
2017-Nov-20 00:00N 39°43' W 075°31'1 2.7
2017-Nov-19 23:30N 39°44' W 075°30'612.1
2017-Nov-19 23:00N 39°49' W 075°25'611.3
2017-Nov-19 22:31N 39°51' W 075°18'4 7.8
2017-Nov-19 22:00N 39°52' W 075°13'0 0.0
2017-Nov-19 21:31N 39°52' W 075°13'0 0.0
2017-Nov-19 21:00N 39°52' W 075°13'0 0.0
2017-Nov-19 20:31N 39°52' W 075°13'0 0.0
2017-Nov-19 20:01N 39°52' W 075°13'0 0.0
2017-Nov-19 19:31N 39°52' W 075°13'0 0.0
2017-Nov-19 19:00N 39°52' W 075°13'0 0.1
2017-Nov-19 18:30N 39°52' W 075°13'0 0.0
2017-Nov-19 18:00N 39°52' W 075°13'0 0.0
2017-Nov-19 17:31N 39°52' W 075°13'0 0.8
2017-Nov-19 17:00N 39°52' W 075°13'1 1.3
2017-Nov-19 16:30N 39°51' W 075°14'1 2.5
2017-Nov-19 16:01N 39°51' W 075°16'3 5.9
2017-Nov-19 15:30N 39°52' W 075°12'1 2.4
2017-Nov-19 15:00N 39°53' W 075°11'0 0.0
2017-Nov-19 14:30N 39°53' W 075°11'0 0.0
2017-Nov-19 14:00N 39°53' W 075°11'0 0.0
2017-Nov-19 13:31N 39°53' W 075°11'0 0.0
2017-Nov-19 13:00N 39°53' W 075°11'0 0.0
2017-Nov-19 12:31N 39°53' W 075°11'0 0.0
2017-Nov-19 12:01N 39°53' W 075°11'0 0.0
2017-Nov-19 11:30N 39°53' W 075°11'0 0.0
2017-Nov-19 11:01N 39°53' W 075°11'0 0.0
2017-Nov-19 10:30N 39°53' W 075°11'0 0.0
2017-Nov-19 10:00N 39°53' W 075°11'0 0.0
2017-Nov-19 09:30N 39°53' W 075°11'0 0.0
2017-Nov-19 09:01N 39°53' W 075°11'0 0.0
2017-Nov-19 08:30N 39°53' W 075°11'0 0.0
2017-Nov-19 08:00N 39°53' W 075°11'0 0.0
2017-Nov-19 07:30N 39°53' W 075°11'0 0.0
2017-Nov-19 07:00N 39°53' W 075°11'0 0.0
2017-Nov-19 06:30N 39°53' W 075°11'0 0.0
2017-Nov-19 06:01N 39°53' W 075°11'0 0.0
2017-Nov-19 05:30N 39°53' W 075°11'0 0.0
2017-Nov-19 05:00N 39°53' W 075°11'0 0.0
2017-Nov-19 04:31N 39°53' W 075°11'0 0.0
2017-Nov-19 04:01N 39°53' W 075°11'0 0.0
2017-Nov-19 03:30N 39°53' W 075°11'0 0.0
2017-Nov-19 03:00N 39°53' W 075°11'2 4.3
2017-Nov-19 02:30N 39°52' W 075°13'611.6
2017-Nov-19 02:01N 39°51' W 075°21'3 6.5
2017-Nov-19 01:31N 39°49' W 075°24'1 2.9
2017-Nov-19 01:01N 39°48' W 075°26'0 0.0
2017-Nov-19 00:30N 39°48' W 075°26'0 0.0
2017-Nov-19 00:00N 39°48' W 075°26'0 0.0
2017-Nov-18 23:31N 39°48' W 075°26'0 0.0
2017-Nov-18 23:00N 39°48' W 075°26'0 0.0
2017-Nov-18 22:30N 39°48' W 075°26'0 0.0
2017-Nov-18 22:00N 39°48' W 075°26'0 0.0
2017-Nov-18 21:31N 39°48' W 075°26'0 0.0
2017-Nov-18 21:00N 39°48' W 075°26'0 0.0
2017-Nov-18 20:31N 39°48' W 075°26'0 0.0
2017-Nov-18 20:00N 39°48' W 075°26'0 0.0
2017-Nov-18 19:31N 39°48' W 075°26'0 1.0
2017-Nov-18 19:00N 39°48' W 075°25'0 0.2
2017-Nov-18 18:30N 39°48' W 075°25'0 0.5
2017-Nov-18 18:00N 39°48' W 075°25'0 0.8
2017-Nov-18 17:30N 39°48' W 075°25'0 0.9
2017-Nov-18 17:01N 39°48' W 075°26'0 0.3
2017-Nov-18 16:30N 39°48' W 075°26'0 0.0
2017-Nov-18 16:00N 39°48' W 075°26'0 0.0
2017-Nov-18 15:30N 39°48' W 075°26'0 0.0
2017-Nov-18 15:00N 39°48' W 075°26'0 0.0
2017-Nov-18 14:30N 39°48' W 075°26'0 0.0
2017-Nov-18 14:01N 39°48' W 075°26'0 0.0
2017-Nov-18 13:31N 39°48' W 075°26'0 0.0
2017-Nov-18 13:00N 39°48' W 075°26'0 0.0
2017-Nov-18 12:30N 39°48' W 075°26'0 0.0
2017-Nov-18 12:00N 39°48' W 075°26'1 1.8
2017-Nov-18 11:30N 39°48' W 075°25'0 0.2
2017-Nov-18 11:00N 39°48' W 075°25'2 4.0
2017-Nov-18 10:30N 39°49' W 075°23'4 7.4
2017-Nov-18 10:01N 39°51' W 075°18'3 6.3
2017-Nov-18 09:30N 39°51' W 075°14'4 7.7
2017-Nov-18 09:00N 39°53' W 075°10'3 5.6
2017-Nov-18 08:30N 39°55' W 075°08'1 2.1
2017-Nov-18 08:00N 39°56' W 075°08'1 1.5
2017-Nov-18 07:30N 39°57' W 075°08'1 1.1
2017-Nov-18 07:00N 39°58' W 075°08'0 0.4
2017-Nov-18 06:30N 39°58' W 075°08'0 0.3
2017-Nov-18 06:01N 39°58' W 075°07'0 0.3
2017-Nov-18 05:31N 39°58' W 075°07'1 1.1
2017-Nov-18 05:00N 39°58' W 075°07'1 2.3
2017-Nov-18 04:30N 39°59' W 075°05'1 1.6
2017-Nov-18 04:00N 39°59' W 075°04'2 5.0
2017-Nov-18 03:30N 39°58' W 075°07'3 6.0
2017-Nov-18 03:00N 39°55' W 075°08'3 5.2
2017-Nov-18 02:31N 39°53' W 075°10'1 1.7
2017-Nov-18 02:01N 39°53' W 075°11'0 0.0
2017-Nov-18 01:30N 39°53' W 075°11'0 0.0
2017-Nov-18 01:00N 39°53' W 075°11'0 0.0
2017-Nov-18 00:30N 39°53' W 075°11'0 0.0
2017-Nov-18 00:00N 39°53' W 075°11'0 0.0
2017-Nov-17 23:31N 39°53' W 075°11'0 0.0
2017-Nov-17 23:01N 39°53' W 075°11'0 0.0
2017-Nov-17 22:30N 39°53' W 075°11'0 0.0
2017-Nov-17 22:00N 39°53' W 075°11'0 0.0
2017-Nov-17 21:31N 39°53' W 075°11'0 0.0
2017-Nov-17 21:00N 39°53' W 075°11'0 0.0
2017-Nov-17 20:30N 39°53' W 075°11'0 0.0
2017-Nov-17 20:00N 39°53' W 075°11'0 0.0
2017-Nov-17 19:30N 39°53' W 075°11'3 6.0
2017-Nov-17 19:00N 39°51' W 075°14'510.3
2017-Nov-17 18:31N 39°50' W 075°21'5 9.1
2017-Nov-17 18:01N 39°48' W 075°26'0 0.1
2017-Nov-17 17:31N 39°48' W 075°26'0 0.0
2017-Nov-17 17:00N 39°48' W 075°26'1 1.3
2017-Nov-17 16:31N 39°48' W 075°27'1 1.6
2017-Nov-17 16:00N 39°48' W 075°26'0 0.0
2017-Nov-17 15:30N 39°48' W 075°26'0 0.0
2017-Nov-17 15:00N 39°48' W 075°26'0 0.0
2017-Nov-17 14:31N 39°48' W 075°26'0 0.0
2017-Nov-17 14:01N 39°48' W 075°26'0 0.0
2017-Nov-17 13:30N 39°48' W 075°26'0 0.0
2017-Nov-17 13:00N 39°48' W 075°26'0 0.0
2017-Nov-17 12:31N 39°48' W 075°26'0 0.0
2017-Nov-17 12:00N 39°48' W 075°26'0 0.0
2017-Nov-17 11:31N 39°48' W 075°26'0 0.0
2017-Nov-17 11:01N 39°48' W 075°26'0 0.0
2017-Nov-17 10:31N 39°48' W 075°26'0 0.0
2017-Nov-17 10:00N 39°48' W 075°26'0 0.0
2017-Nov-17 09:31N 39°48' W 075°26'0 0.3
2017-Nov-17 09:01N 39°48' W 075°26'611.5
2017-Nov-17 08:30N 39°51' W 075°19'2 4.7
2017-Nov-17 08:00N 39°51' W 075°16'0 0.0
2017-Nov-17 07:30N 39°51' W 075°16'0 0.1
2017-Nov-17 07:01N 39°51' W 075°16'1 2.7
2017-Nov-17 06:30N 39°51' W 075°18'0 0.9
2017-Nov-17 06:01N 39°51' W 075°18'1 2.4
2017-Nov-17 05:31N 39°51' W 075°17'1 1.2
2017-Nov-17 05:01N 39°51' W 075°16'3 6.7
2017-Nov-17 04:30N 39°51' W 075°21'5 9.6
2017-Nov-17 04:00N 39°48' W 075°26'0 0.1
2017-Nov-17 03:30N 39°48' W 075°26'0 0.0
2017-Nov-17 03:00N 39°48' W 075°26'0 0.0
2017-Nov-17 02:30N 39°48' W 075°26'0 0.0
2017-Nov-17 02:00N 39°48' W 075°26'0 0.0
2017-Nov-17 01:30N 39°48' W 075°26'0 0.0
2017-Nov-17 01:00N 39°48' W 075°26'0 0.6
2017-Nov-17 00:30N 39°48' W 075°25'0 0.8
2017-Nov-17 00:00N 39°48' W 075°26'2 4.7
2017-Nov-16 23:30N 39°49' W 075°23'5 9.9
2017-Nov-16 23:00N 39°51' W 075°17'4 8.5
2017-Nov-16 22:30N 39°53' W 075°12'1 2.1
2017-Nov-16 22:01N 39°53' W 075°11'0 0.0
2017-Nov-16 21:30N 39°53' W 075°11'0 0.0
2017-Nov-16 21:01N 39°53' W 075°11'0 0.0
2017-Nov-16 20:31N 39°53' W 075°11'0 0.0
2017-Nov-16 20:01N 39°53' W 075°11'0 0.0
2017-Nov-16 19:30N 39°53' W 075°11'0 0.0
2017-Nov-16 19:01N 39°53' W 075°11'0 0.0
2017-Nov-16 18:31N 39°53' W 075°11'0 0.0
2017-Nov-16 18:00N 39°53' W 075°11'0 0.0
2017-Nov-16 17:31N 39°53' W 075°11'0 0.0
2017-Nov-16 17:00N 39°53' W 075°11'0 0.0
2017-Nov-16 16:30N 39°53' W 075°11'0 0.0
2017-Nov-16 16:00N 39°53' W 075°11'0 0.0
2017-Nov-16 15:31N 39°53' W 075°11'0 0.0
2017-Nov-16 15:00N 39°53' W 075°11'0 0.0
2017-Nov-16 14:31N 39°53' W 075°11'0 0.0
2017-Nov-16 14:01N 39°53' W 075°11'0 0.0
2017-Nov-16 13:31N 39°53' W 075°11'0 0.0
2017-Nov-16 13:01N 39°53' W 075°11'0 0.0
2017-Nov-16 12:31N 39°53' W 075°11'0 0.0
2017-Nov-16 12:00N 39°53' W 075°11'0 0.0
2017-Nov-16 11:30N 39°53' W 075°11'0 0.0
2017-Nov-16 11:01N 39°53' W 075°11'0 0.0
2017-Nov-16 10:31N 39°53' W 075°11'0 0.0
2017-Nov-16 10:00N 39°53' W 075°11'0 0.0
2017-Nov-16 09:31N 39°53' W 075°11'0 0.0
2017-Nov-16 09:00N 39°53' W 075°11'0 0.0
2017-Nov-16 08:31N 39°53' W 075°11'0 0.0
2017-Nov-16 08:01N 39°53' W 075°11'0 0.0
2017-Nov-16 07:30N 39°53' W 075°11'0 0.0
2017-Nov-16 07:01N 39°53' W 075°11'0 0.0
2017-Nov-16 06:31N 39°53' W 075°11'0 0.0
2017-Nov-16 06:00N 39°53' W 075°11'0 0.0
2017-Nov-16 05:30N 39°53' W 075°11'2 4.0
2017-Nov-16 05:00N 39°53' W 075°08'1 1.3
2017-Nov-16 04:31N 39°54' W 075°08'0 0.0
2017-Nov-16 04:00N 39°54' W 075°08'0 0.0
2017-Nov-16 03:30N 39°54' W 075°08'0 0.0
2017-Nov-16 03:00N 39°54' W 075°08'0 0.0
2017-Nov-16 02:31N 39°54' W 075°08'0 0.0
2017-Nov-16 02:01N 39°54' W 075°08'0 0.0
2017-Nov-16 01:30N 39°54' W 075°08'0 0.0
2017-Nov-16 01:01N 39°54' W 075°08'0 0.0
2017-Nov-16 00:30N 39°54' W 075°08'0 0.0
2017-Nov-16 00:01N 39°54' W 075°08'0 0.2
2017-Nov-15 23:31N 39°54' W 075°08'2 3.4
2017-Nov-15 23:00N 39°55' W 075°08'1 1.2
2017-Nov-15 22:30N 39°56' W 075°08'0 0.0
2017-Nov-15 22:00N 39°56' W 075°08'0 0.0
2017-Nov-15 21:30N 39°56' W 075°08'0 0.0
2017-Nov-15 21:00N 39°56' W 075°08'0 0.0
2017-Nov-15 20:30N 39°56' W 075°08'0 0.0
2017-Nov-15 20:00N 39°56' W 075°08'3 5.6
2017-Nov-15 19:30N 39°53' W 075°08'4 8.3
2017-Nov-15 19:00N 39°52' W 075°14'4 8.6
2017-Nov-15 18:31N 39°51' W 075°19'4 8.3
2017-Nov-15 18:01N 39°49' W 075°24'1 2.0
2017-Nov-15 17:30N 39°48' W 075°25'0 0.1
2017-Nov-15 17:00N 39°48' W 075°25'1 1.2
2017-Nov-15 16:31N 39°49' W 075°24'3 5.6
2017-Nov-15 16:00N 39°50' W 075°21'3 6.1
2017-Nov-15 15:31N 39°51' W 075°17'4 7.9
2017-Nov-15 15:01N 39°52' W 075°13'1 2.8
2017-Nov-15 14:31N 39°53' W 075°11'0 0.0
2017-Nov-15 14:01N 39°53' W 075°11'0 0.0
2017-Nov-15 13:30N 39°53' W 075°11'0 0.0
2017-Nov-15 13:00N 39°53' W 075°11'0 0.0
2017-Nov-15 12:30N 39°53' W 075°11'0 0.0
2017-Nov-15 12:00N 39°53' W 075°11'0 0.0
2017-Nov-15 11:31N 39°53' W 075°11'0 0.0
2017-Nov-15 11:01N 39°53' W 075°11'0 0.0
2017-Nov-15 10:31N 39°53' W 075°11'0 0.0
2017-Nov-15 10:00N 39°53' W 075°11'0 0.0
2017-Nov-15 09:31N 39°53' W 075°11'0 0.0
2017-Nov-15 09:00N 39°53' W 075°11'0 0.0
2017-Nov-15 08:31N 39°53' W 075°11'0 0.0
2017-Nov-15 08:01N 39°53' W 075°11'0 0.0
2017-Nov-15 07:30N 39°53' W 075°11'0 0.0
2017-Nov-15 07:01N 39°53' W 075°11'0 0.0
2017-Nov-15 06:30N 39°53' W 075°11'0 0.0
2017-Nov-15 06:01N 39°53' W 075°11'0 0.0
2017-Nov-15 05:31N 39°53' W 075°11'0 0.0
2017-Nov-15 05:00N 39°53' W 075°11'0 0.0
2017-Nov-15 04:30N 39°53' W 075°11'0 0.0
2017-Nov-15 04:01N 39°53' W 075°11'0 0.0
2017-Nov-15 03:31N 39°53' W 075°11'0 0.0
2017-Nov-15 03:00N 39°53' W 075°11'0 0.0
2017-Nov-15 02:30N 39°53' W 075°11'0 0.0
2017-Nov-15 02:01N 39°53' W 075°11'0 0.0
2017-Nov-15 01:31N 39°53' W 075°11'0 0.0
2017-Nov-15 01:00N 39°53' W 075°11'0 0.0
2017-Nov-15 00:30N 39°53' W 075°11'0 0.0
2017-Nov-15 00:01N 39°53' W 075°11'0 0.0
2017-Nov-14 23:31N 39°53' W 075°11'0 0.0
2017-Nov-14 23:00N 39°53' W 075°11'0 0.0
2017-Nov-14 22:31N 39°53' W 075°11'0 0.0
2017-Nov-14 22:01N 39°53' W 075°11'0 0.0
2017-Nov-14 21:30N 39°53' W 075°11'0 0.0
2017-Nov-14 21:00N 39°53' W 075°11'0 0.0
2017-Nov-14 20:31N 39°53' W 075°11'2 4.6
2017-Nov-14 20:01N 39°52' W 075°14'4 8.9
2017-Nov-14 19:30N 39°51' W 075°19'4 8.4
2017-Nov-14 19:01N 39°49' W 075°24'1 1.6
2017-Nov-14 18:31N 39°48' W 075°25'0 0.0
2017-Nov-14 18:00N 39°48' W 075°25'1 2.5
2017-Nov-14 17:31N 39°48' W 075°26'0 0.2
2017-Nov-14 17:01N 39°48' W 075°26'1 1.3
2017-Nov-14 16:31N 39°47' W 075°27'5 9.9
2017-Nov-14 16:01N 39°43' W 075°30'1 1.2
2017-Nov-14 15:31N 39°43' W 075°31'0 0.0
2017-Nov-14 15:01N 39°43' W 075°31'0 0.0
2017-Nov-14 14:31N 39°43' W 075°31'0 0.0
2017-Nov-14 14:01N 39°43' W 075°31'0 0.0
2017-Nov-14 13:30N 39°43' W 075°31'0 0.0
2017-Nov-14 13:00N 39°43' W 075°31'0 0.0
2017-Nov-14 12:30N 39°43' W 075°31'0 0.0
2017-Nov-14 12:01N 39°43' W 075°31'0 0.0
2017-Nov-14 11:30N 39°43' W 075°31'0 0.0
2017-Nov-14 11:01N 39°43' W 075°31'0 0.0
2017-Nov-14 10:30N 39°43' W 075°31'0 0.3
2017-Nov-14 10:01N 39°43' W 075°31'0 0.3
2017-Nov-14 09:31N 39°43' W 075°31'0 0.0
2017-Nov-14 09:00N 39°43' W 075°31'0 0.0
2017-Nov-14 08:30N 39°43' W 075°31'0 0.0
2017-Nov-14 08:00N 39°43' W 075°31'0 0.0
2017-Nov-14 07:30N 39°43' W 075°31'0 0.0
2017-Nov-14 07:00N 39°43' W 075°31'0 0.0
2017-Nov-14 06:30N 39°43' W 075°31'0 0.0
2017-Nov-14 06:00N 39°43' W 075°31'0 0.0
2017-Nov-14 05:30N 39°43' W 075°31'0 0.0
2017-Nov-14 05:00N 39°43' W 075°31'0 0.0
2017-Nov-14 04:30N 39°43' W 075°31'0 0.0
2017-Nov-14 04:00N 39°43' W 075°31'0 0.0
2017-Nov-14 03:30N 39°43' W 075°31'0 0.0
2017-Nov-14 03:00N 39°43' W 075°31'0 0.0
2017-Nov-14 02:30N 39°43' W 075°31'0 0.5
2017-Nov-14 02:00N 39°43' W 075°31'1 1.2
2017-Nov-14 01:31N 39°43' W 075°32'0 0.8
2017-Nov-14 01:01N 39°43' W 075°31'0 0.0
2017-Nov-14 00:30N 39°43' W 075°31'0 0.0
2017-Nov-14 00:01N 39°43' W 075°31'0 0.0
2017-Nov-13 23:31N 39°43' W 075°31'1 2.1
2017-Nov-13 23:01N 39°42' W 075°31'612.5
2017-Nov-13 22:31N 39°37' W 075°36'4 8.2
2017-Nov-13 22:00N 39°34' W 075°33'9 0.5
2017-Nov-13 02:00N 39°43' W 075°31'0 0.0
2017-Nov-13 01:31N 39°43' W 075°31'0 0.0
2017-Nov-13 01:01N 39°43' W 075°31'0 0.0
2017-Nov-13 00:31N 39°43' W 075°31'0 0.0
2017-Nov-13 00:00N 39°43' W 075°31'0 0.0
2017-Nov-12 23:31N 39°43' W 075°31'0 0.0
2017-Nov-12 23:01N 39°43' W 075°31'0 0.0
2017-Nov-12 22:30N 39°43' W 075°31'0 0.0
2017-Nov-12 22:01N 39°43' W 075°31'4 7.7
2017-Nov-12 21:31N 39°46' W 075°28'4 7.2
2017-Nov-12 21:01N 39°48' W 075°25'0 0.4
2017-Nov-12 20:31N 39°48' W 075°25'0 1.0
2017-Nov-12 20:01N 39°49' W 075°24'1 1.6
2017-Nov-12 19:30N 39°48' W 075°25'0 0.9
2017-Nov-12 19:00N 39°48' W 075°26'0 0.0
2017-Nov-12 18:30N 39°48' W 075°26'0 0.0
2017-Nov-12 18:01N 39°48' W 075°26'0 0.0
2017-Nov-12 17:31N 39°48' W 075°26'0 0.0
2017-Nov-12 17:00N 39°48' W 075°26'0 0.0
2017-Nov-12 16:31N 39°48' W 075°26'0 0.0
2017-Nov-12 16:00N 39°48' W 075°26'0 0.0
2017-Nov-12 15:31N 39°48' W 075°26'0 0.0
2017-Nov-12 15:00N 39°48' W 075°26'0 0.0
2017-Nov-12 14:30N 39°48' W 075°26'0 0.0
2017-Nov-12 14:01N 39°48' W 075°26'0 0.0
2017-Nov-12 13:31N 39°48' W 075°26'0 0.3
2017-Nov-12 13:00N 39°48' W 075°26'0 0.4
2017-Nov-12 12:31N 39°48' W 075°26'1 1.3
2017-Nov-12 12:01N 39°48' W 075°25'1 1.8
2017-Nov-12 11:31N 39°48' W 075°26'0 0.2
2017-Nov-12 11:00N 39°48' W 075°26'0 0.0
2017-Nov-12 10:31N 39°48' W 075°26'0 0.0
2017-Nov-12 10:01N 39°48' W 075°26'1 1.9
2017-Nov-12 09:31N 39°47' W 075°27'611.0
2017-Nov-12 09:00N 39°43' W 075°31'0 0.4
2017-Nov-12 08:30N 39°43' W 075°31'1 1.3
2017-Nov-12 08:00N 39°43' W 075°32'0 0.6
2017-Nov-12 07:30N 39°43' W 075°31'1 1.8
2017-Nov-12 07:01N 39°42' W 075°31'2 3.4
2017-Nov-12 06:31N 39°41' W 075°32'2 4.9
2017-Nov-12 06:01N 39°43' W 075°31'0 0.0
2017-Nov-12 05:31N 39°43' W 075°31'0 0.0
2017-Nov-12 05:01N 39°43' W 075°31'0 0.0
2017-Nov-12 04:31N 39°43' W 075°31'0 0.0
2017-Nov-12 04:01N 39°43' W 075°31'0 0.0
2017-Nov-12 03:31N 39°43' W 075°31'0 0.0
2017-Nov-12 03:01N 39°43' W 075°31'0 0.0
2017-Nov-12 02:31N 39°43' W 075°31'0 0.0
2017-Nov-12 02:00N 39°43' W 075°31'0 0.0
2017-Nov-12 01:30N 39°43' W 075°31'0 0.0
2017-Nov-12 01:01N 39°43' W 075°31'0 0.0
2017-Nov-12 00:31N 39°43' W 075°31'0 0.0
2017-Nov-12 00:01N 39°43' W 075°31'0 0.0
2017-Nov-11 23:31N 39°43' W 075°31'0 0.4
2017-Nov-11 23:00N 39°43' W 075°31'0 0.2
2017-Nov-11 22:31N 39°43' W 075°31'0 0.4
2017-Nov-11 22:01N 39°43' W 075°31'0 0.6
2017-Nov-11 21:31N 39°43' W 075°31'0 0.0
2017-Nov-11 21:00N 39°43' W 075°31'0 0.0
2017-Nov-11 20:31N 39°43' W 075°31'0 0.0
2017-Nov-11 20:00N 39°43' W 075°31'0 0.0
2017-Nov-11 19:30N 39°43' W 075°31'0 0.0
2017-Nov-11 19:00N 39°43' W 075°31'0 0.0
2017-Nov-11 18:30N 39°43' W 075°31'0 0.0
2017-Nov-11 18:00N 39°43' W 075°31'0 0.0
2017-Nov-11 17:31N 39°43' W 075°31'0 0.0
2017-Nov-11 17:00N 39°43' W 075°31'0 0.0
2017-Nov-11 16:31N 39°43' W 075°31'0 0.0
2017-Nov-11 16:00N 39°43' W 075°31'0 0.0
2017-Nov-11 15:31N 39°43' W 075°31'0 0.0
2017-Nov-11 15:00N 39°43' W 075°31'0 0.0
2017-Nov-11 14:30N 39°43' W 075°31'0 0.0
2017-Nov-11 14:00N 39°43' W 075°31'2 4.2
2017-Nov-11 13:30N 39°41' W 075°32'510.4
2017-Nov-11 13:00N 39°37' W 075°36'2 4.1
2017-Nov-11 12:31N 39°35' W 075°36'0 0.0
2017-Nov-11 12:01N 39°35' W 075°36'0 0.5
2017-Nov-11 11:31N 39°35' W 075°35'2 4.1
2017-Nov-11 11:01N 39°34' W 075°33'2 4.1
2017-Nov-11 10:31N 39°36' W 075°34'1 2.5
2017-Nov-11 10:00N 39°35' W 075°35'3 6.2
2017-Nov-11 09:31N 39°38' W 075°36'510.4
2017-Nov-11 09:01N 39°42' W 075°31'1 2.1
2017-Nov-11 08:30N 39°43' W 075°31'0 0.0
2017-Nov-11 08:00N 39°43' W 075°31'0 0.0
2017-Nov-11 07:30N 39°43' W 075°31'0 0.0
2017-Nov-11 07:01N 39°43' W 075°31'0 0.0
2017-Nov-11 06:30N 39°43' W 075°31'0 0.0
2017-Nov-11 06:01N 39°43' W 075°31'0 0.0
2017-Nov-11 05:31N 39°43' W 075°31'0 0.0
2017-Nov-11 05:01N 39°43' W 075°31'0 0.0
2017-Nov-11 04:30N 39°43' W 075°31'0 0.0
2017-Nov-11 04:00N 39°43' W 075°31'0 0.0
2017-Nov-11 03:30N 39°43' W 075°31'0 0.0
2017-Nov-11 03:01N 39°43' W 075°31'0 0.0
2017-Nov-11 02:31N 39°43' W 075°31'0 0.0
2017-Nov-11 02:01N 39°43' W 075°31'1 1.1
2017-Nov-11 01:31N 39°43' W 075°31'0 0.1
2017-Nov-11 01:00N 39°43' W 075°31'0 0.0
2017-Nov-11 00:31N 39°43' W 075°31'1 1.3
2017-Nov-11 00:01N 39°43' W 075°31'0 0.1
2017-Nov-10 23:31N 39°43' W 075°31'1 2.1
2017-Nov-10 23:00N 39°42' W 075°31'1 1.7
2017-Nov-10 22:31N 39°43' W 075°31'0 0.0
2017-Nov-10 22:00N 39°43' W 075°31'0 0.0
2017-Nov-10 21:30N 39°43' W 075°31'2 3.3
2017-Nov-10 21:01N 39°44' W 075°30'4 8.8
2017-Nov-10 20:30N 39°48' W 075°26'2 3.1
2017-Nov-10 20:01N 39°49' W 075°24'0 0.0
2017-Nov-10 19:30N 39°49' W 075°24'0 0.5
2017-Nov-10 19:01N 39°48' W 075°24'2 4.0
2017-Nov-10 18:30N 39°47' W 075°27'0 0.1
2017-Nov-10 18:00N 39°47' W 075°27'2 4.0
2017-Nov-10 17:30N 39°49' W 075°25'1 1.9
2017-Nov-10 17:01N 39°48' W 075°26'3 6.2
2017-Nov-10 16:30N 39°46' W 075°29'3 6.6
2017-Nov-10 16:00N 39°43' W 075°31'0 0.7
2017-Nov-10 15:30N 39°43' W 075°31'0 0.0
2017-Nov-10 15:00N 39°43' W 075°31'0 0.0
2017-Nov-10 14:31N 39°43' W 075°31'0 0.0
2017-Nov-10 14:01N 39°43' W 075°31'0 0.0
2017-Nov-10 13:30N 39°43' W 075°31'0 0.0
2017-Nov-10 13:01N 39°43' W 075°31'0 0.0
2017-Nov-10 12:31N 39°43' W 075°31'0 0.0
2017-Nov-10 12:01N 39°43' W 075°31'0 0.4
2017-Nov-10 11:31N 39°43' W 075°31'0 0.0
2017-Nov-10 11:00N 39°43' W 075°31'0 1.0
2017-Nov-10 10:31N 39°43' W 075°30'1 1.5
2017-Nov-10 10:01N 39°43' W 075°31'0 0.0
2017-Nov-10 09:30N 39°43' W 075°31'0 0.0
2017-Nov-10 09:01N 39°43' W 075°31'0 0.0
2017-Nov-10 08:31N 39°43' W 075°31'0 0.0
2017-Nov-10 08:00N 39°43' W 075°31'0 0.0
2017-Nov-10 07:31N 39°43' W 075°31'0 0.0
2017-Nov-10 07:01N 39°43' W 075°31'1 1.3
2017-Nov-10 06:30N 39°43' W 075°30'5 9.7
2017-Nov-10 06:00N 39°47' W 075°27'3 5.0
2017-Nov-10 05:30N 39°49' W 075°24'0 0.0
2017-Nov-10 05:00N 39°49' W 075°24'0 0.0
2017-Nov-10 04:30N 39°49' W 075°24'0 0.0
2017-Nov-10 04:01N 39°49' W 075°24'0 0.0
2017-Nov-10 03:31N 39°49' W 075°24'5 9.1
2017-Nov-10 03:00N 39°51' W 075°19'4 8.9
2017-Nov-10 02:31N 39°52' W 075°13'0 0.6
2017-Nov-10 02:01N 39°52' W 075°13'1 2.3
2017-Nov-10 01:30N 39°53' W 075°12'1 1.3
2017-Nov-10 01:00N 39°53' W 075°11'0 0.0
2017-Nov-10 00:31N 39°53' W 075°11'  
Track history (hours):
 
Tides and Currents Weather Stations Pressure Air Temp Water Temp Dewpoint Dewpoint Depression Visibility Wind Speed Wind Dir Waves Ship Positions

Madeline

Owner: TUG MADELINE, LLC, NEW CASTLE, DE. More information available from US FCC via Universal Licensing System and Coast Guard Vessel Documentation Center.

Last reported at 2017-Nov-20 00:30 UTC. Time now 2017-Nov-22 01:56 UTC.
Position N 39°43' W 075°31'.

Length 23 m; draft 4.6 m.

Type: Tug. MMSI: 367335830.

Date/timePositionNaut miles runAvg speedWind from/ knotsBaromVisibWave heightAir tempDewpointWater temp
2017-Nov-20 00:30N 39°43' W 075°31'0 0.0
2017-Nov-20 00:00N 39°43' W 075°31'1 2.7
2017-Nov-19 23:30N 39°44' W 075°30'612.1
2017-Nov-19 23:00N 39°49' W 075°25'611.3
2017-Nov-19 22:31N 39°51' W 075°18'4 7.8
2017-Nov-19 22:00N 39°52' W 075°13'0 0.0
2017-Nov-19 21:31N 39°52' W 075°13'0 0.0
2017-Nov-19 21:00N 39°52' W 075°13'0 0.0
2017-Nov-19 20:31N 39°52' W 075°13'0 0.0
2017-Nov-19 20:01N 39°52' W 075°13'0 0.0
2017-Nov-19 19:31N 39°52' W 075°13'0 0.0
2017-Nov-19 19:00N 39°52' W 075°13'0 0.1
2017-Nov-19 18:30N 39°52' W 075°13'0 0.0
2017-Nov-19 18:00N 39°52' W 075°13'0 0.0
2017-Nov-19 17:31N 39°52' W 075°13'0 0.8
2017-Nov-19 17:00N 39°52' W 075°13'1 1.3
2017-Nov-19 16:30N 39°51' W 075°14'1 2.5
2017-Nov-19 16:01N 39°51' W 075°16'3 5.9
2017-Nov-19 15:30N 39°52' W 075°12'1 2.4
2017-Nov-19 15:00N 39°53' W 075°11'0 0.0
2017-Nov-19 14:30N 39°53' W 075°11'0 0.0
2017-Nov-19 14:00N 39°53' W 075°11'0 0.0
2017-Nov-19 13:31N 39°53' W 075°11'0 0.0
2017-Nov-19 13:00N 39°53' W 075°11'0 0.0
2017-Nov-19 12:31N 39°53' W 075°11'0 0.0
2017-Nov-19 12:01N 39°53' W 075°11'0 0.0
2017-Nov-19 11:30N 39°53' W 075°11'0 0.0
2017-Nov-19 11:01N 39°53' W 075°11'0 0.0
2017-Nov-19 10:30N 39°53' W 075°11'0 0.0
2017-Nov-19 10:00N 39°53' W 075°11'0 0.0
2017-Nov-19 09:30N 39°53' W 075°11'0 0.0
2017-Nov-19 09:01N 39°53' W 075°11'0 0.0
2017-Nov-19 08:30N 39°53' W 075°11'0 0.0
2017-Nov-19 08:00N 39°53' W 075°11'0 0.0
2017-Nov-19 07:30N 39°53' W 075°11'0 0.0
2017-Nov-19 07:00N 39°53' W 075°11'0 0.0
2017-Nov-19 06:30N 39°53' W 075°11'0 0.0
2017-Nov-19 06:01N 39°53' W 075°11'0 0.0
2017-Nov-19 05:30N 39°53' W 075°11'0 0.0
2017-Nov-19 05:00N 39°53' W 075°11'0 0.0
2017-Nov-19 04:31N 39°53' W 075°11'0 0.0
2017-Nov-19 04:01N 39°53' W 075°11'0 0.0
2017-Nov-19 03:30N 39°53' W 075°11'0 0.0
2017-Nov-19 03:00N 39°53' W 075°11'2 4.3
2017-Nov-19 02:30N 39°52' W 075°13'611.6
2017-Nov-19 02:01N 39°51' W 075°21'3 6.5
2017-Nov-19 01:31N 39°49' W 075°24'1 2.9
2017-Nov-19 01:01N 39°48' W 075°26'0 0.0
2017-Nov-19 00:30N 39°48' W 075°26'0 0.0
2017-Nov-19 00:00N 39°48' W 075°26'0 0.0
2017-Nov-18 23:31N 39°48' W 075°26'0 0.0
2017-Nov-18 23:00N 39°48' W 075°26'0 0.0
2017-Nov-18 22:30N 39°48' W 075°26'0 0.0
2017-Nov-18 22:00N 39°48' W 075°26'0 0.0
2017-Nov-18 21:31N 39°48' W 075°26'0 0.0
2017-Nov-18 21:00N 39°48' W 075°26'0 0.0
2017-Nov-18 20:31N 39°48' W 075°26'0 0.0
2017-Nov-18 20:00N 39°48' W 075°26'0 0.0
2017-Nov-18 19:31N 39°48' W 075°26'0 1.0
2017-Nov-18 19:00N 39°48' W 075°25'0 0.2
2017-Nov-18 18:30N 39°48' W 075°25'0 0.5
2017-Nov-18 18:00N 39°48' W 075°25'0 0.8
2017-Nov-18 17:30N 39°48' W 075°25'0 0.9
2017-Nov-18 17:01N 39°48' W 075°26'0 0.3
2017-Nov-18 16:30N 39°48' W 075°26'0 0.0
2017-Nov-18 16:00N 39°48' W 075°26'0 0.0
2017-Nov-18 15:30N 39°48' W 075°26'0 0.0
2017-Nov-18 15:00N 39°48' W 075°26'0 0.0
2017-Nov-18 14:30N 39°48' W 075°26'0 0.0
2017-Nov-18 14:01N 39°48' W 075°26'0 0.0
2017-Nov-18 13:31N 39°48' W 075°26'0 0.0
2017-Nov-18 13:00N 39°48' W 075°26'0 0.0
2017-Nov-18 12:30N 39°48' W 075°26'0 0.0
2017-Nov-18 12:00N 39°48' W 075°26'1 1.8
2017-Nov-18 11:30N 39°48' W 075°25'0 0.2
2017-Nov-18 11:00N 39°48' W 075°25'2 4.0
2017-Nov-18 10:30N 39°49' W 075°23'4 7.4
2017-Nov-18 10:01N 39°51' W 075°18'3 6.3
2017-Nov-18 09:30N 39°51' W 075°14'4 7.7
2017-Nov-18 09:00N 39°53' W 075°10'3 5.6
2017-Nov-18 08:30N 39°55' W 075°08'1 2.1
2017-Nov-18 08:00N 39°56' W 075°08'1 1.5
2017-Nov-18 07:30N 39°57' W 075°08'1 1.1
2017-Nov-18 07:00N 39°58' W 075°08'0 0.4
2017-Nov-18 06:30N 39°58' W 075°08'0 0.3
2017-Nov-18 06:01N 39°58' W 075°07'0 0.3
2017-Nov-18 05:31N 39°58' W 075°07'1 1.1
2017-Nov-18 05:00N 39°58' W 075°07'1 2.3
2017-Nov-18 04:30N 39°59' W 075°05'1 1.6
2017-Nov-18 04:00N 39°59' W 075°04'2 5.0
2017-Nov-18 03:30N 39°58' W 075°07'3 6.0
2017-Nov-18 03:00N 39°55' W 075°08'3 5.2
2017-Nov-18 02:31N 39°53' W 075°10'1 1.7
2017-Nov-18 02:01N 39°53' W 075°11'0 0.0
2017-Nov-18 01:30N 39°53' W 075°11'0 0.0
2017-Nov-18 01:00N 39°53' W 075°11'0 0.0
2017-Nov-18 00:30N 39°53' W 075°11'0 0.0
2017-Nov-18 00:00N 39°53' W 075°11'0 0.0
2017-Nov-17 23:31N 39°53' W 075°11'0 0.0
2017-Nov-17 23:01N 39°53' W 075°11'0 0.0
2017-Nov-17 22:30N 39°53' W 075°11'0 0.0
2017-Nov-17 22:00N 39°53' W 075°11'0 0.0
2017-Nov-17 21:31N 39°53' W 075°11'0 0.0
2017-Nov-17 21:00N 39°53' W 075°11'0 0.0
2017-Nov-17 20:30N 39°53' W 075°11'0 0.0
2017-Nov-17 20:00N 39°53' W 075°11'0 0.0
2017-Nov-17 19:30N 39°53' W 075°11'3 6.0
2017-Nov-17 19:00N 39°51' W 075°14'510.3
2017-Nov-17 18:31N 39°50' W 075°21'5 9.1
2017-Nov-17 18:01N 39°48' W 075°26'0 0.1
2017-Nov-17 17:31N 39°48' W 075°26'0 0.0
2017-Nov-17 17:00N 39°48' W 075°26'1 1.3
2017-Nov-17 16:31N 39°48' W 075°27'1 1.6
2017-Nov-17 16:00N 39°48' W 075°26'0 0.0
2017-Nov-17 15:30N 39°48' W 075°26'0 0.0
2017-Nov-17 15:00N 39°48' W 075°26'0 0.0
2017-Nov-17 14:31N 39°48' W 075°26'0 0.0
2017-Nov-17 14:01N 39°48' W 075°26'0 0.0
2017-Nov-17 13:30N 39°48' W 075°26'0 0.0
2017-Nov-17 13:00N 39°48' W 075°26'0 0.0
2017-Nov-17 12:31N 39°48' W 075°26'0 0.0
2017-Nov-17 12:00N 39°48' W 075°26'0 0.0
2017-Nov-17 11:31N 39°48' W 075°26'0 0.0
2017-Nov-17 11:01N 39°48' W 075°26'0 0.0
2017-Nov-17 10:31N 39°48' W 075°26'0 0.0
2017-Nov-17 10:00N 39°48' W 075°26'0 0.0
2017-Nov-17 09:31N 39°48' W 075°26'0 0.3
2017-Nov-17 09:01N 39°48' W 075°26'611.5
2017-Nov-17 08:30N 39°51' W 075°19'2 4.7
2017-Nov-17 08:00N 39°51' W 075°16'0 0.0
2017-Nov-17 07:30N 39°51' W 075°16'0 0.1
2017-Nov-17 07:01N 39°51' W 075°16'1 2.7
2017-Nov-17 06:30N 39°51' W 075°18'0 0.9
2017-Nov-17 06:01N 39°51' W 075°18'1 2.4
2017-Nov-17 05:31N 39°51' W 075°17'1 1.2
2017-Nov-17 05:01N 39°51' W 075°16'3 6.7
2017-Nov-17 04:30N 39°51' W 075°21'5 9.6
2017-Nov-17 04:00N 39°48' W 075°26'0 0.1
2017-Nov-17 03:30N 39°48' W 075°26'0 0.0
2017-Nov-17 03:00N 39°48' W 075°26'0 0.0
2017-Nov-17 02:30N 39°48' W 075°26'0 0.0
2017-Nov-17 02:00N 39°48' W 075°26'0 0.0
2017-Nov-17 01:30N 39°48' W 075°26'0 0.0
2017-Nov-17 01:00N 39°48' W 075°26'0 0.6
2017-Nov-17 00:30N 39°48' W 075°25'0 0.8
2017-Nov-17 00:00N 39°48' W 075°26'2 4.7
2017-Nov-16 23:30N 39°49' W 075°23'5 9.9
2017-Nov-16 23:00N 39°51' W 075°17'4 8.5
2017-Nov-16 22:30N 39°53' W 075°12'1 2.1
2017-Nov-16 22:01N 39°53' W 075°11'0 0.0
2017-Nov-16 21:30N 39°53' W 075°11'0 0.0
2017-Nov-16 21:01N 39°53' W 075°11'0 0.0
2017-Nov-16 20:31N 39°53' W 075°11'0 0.0
2017-Nov-16 20:01N 39°53' W 075°11'0 0.0
2017-Nov-16 19:30N 39°53' W 075°11'0 0.0
2017-Nov-16 19:01N 39°53' W 075°11'0 0.0
2017-Nov-16 18:31N 39°53' W 075°11'0 0.0
2017-Nov-16 18:00N 39°53' W 075°11'0 0.0
2017-Nov-16 17:31N 39°53' W 075°11'0 0.0
2017-Nov-16 17:00N 39°53' W 075°11'0 0.0
2017-Nov-16 16:30N 39°53' W 075°11'0 0.0
2017-Nov-16 16:00N 39°53' W 075°11'0 0.0
2017-Nov-16 15:31N 39°53' W 075°11'0 0.0
2017-Nov-16 15:00N 39°53' W 075°11'0 0.0
2017-Nov-16 14:31N 39°53' W 075°11'0 0.0
2017-Nov-16 14:01N 39°53' W 075°11'0 0.0
2017-Nov-16 13:31N 39°53' W 075°11'0 0.0
2017-Nov-16 13:01N 39°53' W 075°11'0 0.0
2017-Nov-16 12:31N 39°53' W 075°11'0 0.0
2017-Nov-16 12:00N 39°53' W 075°11'0 0.0
2017-Nov-16 11:30N 39°53' W 075°11'0 0.0
2017-Nov-16 11:01N 39°53' W 075°11'0 0.0
2017-Nov-16 10:31N 39°53' W 075°11'0 0.0
2017-Nov-16 10:00N 39°53' W 075°11'0 0.0
2017-Nov-16 09:31N 39°53' W 075°11'0 0.0
2017-Nov-16 09:00N 39°53' W 075°11'0 0.0
2017-Nov-16 08:31N 39°53' W 075°11'0 0.0
2017-Nov-16 08:01N 39°53' W 075°11'0 0.0
2017-Nov-16 07:30N 39°53' W 075°11'0 0.0
2017-Nov-16 07:01N 39°53' W 075°11'0 0.0
2017-Nov-16 06:31N 39°53' W 075°11'0 0.0
2017-Nov-16 06:00N 39°53' W 075°11'0 0.0
2017-Nov-16 05:30N 39°53' W 075°11'2 4.0
2017-Nov-16 05:00N 39°53' W 075°08'1 1.3
2017-Nov-16 04:31N 39°54' W 075°08'0 0.0
2017-Nov-16 04:00N 39°54' W 075°08'0 0.0
2017-Nov-16 03:30N 39°54' W 075°08'0 0.0
2017-Nov-16 03:00N 39°54' W 075°08'0 0.0
2017-Nov-16 02:31N 39°54' W 075°08'0 0.0
2017-Nov-16 02:01N 39°54' W 075°08'0 0.0
2017-Nov-16 01:30N 39°54' W 075°08'0 0.0
2017-Nov-16 01:01N 39°54' W 075°08'0 0.0
2017-Nov-16 00:30N 39°54' W 075°08'0 0.0
2017-Nov-16 00:01N 39°54' W 075°08'0 0.2
2017-Nov-15 23:31N 39°54' W 075°08'2 3.4
2017-Nov-15 23:00N 39°55' W 075°08'1 1.2
2017-Nov-15 22:30N 39°56' W 075°08'0 0.0
2017-Nov-15 22:00N 39°56' W 075°08'0 0.0
2017-Nov-15 21:30N 39°56' W 075°08'0 0.0
2017-Nov-15 21:00N 39°56' W 075°08'0 0.0
2017-Nov-15 20:30N 39°56' W 075°08'0 0.0
2017-Nov-15 20:00N 39°56' W 075°08'3 5.6
2017-Nov-15 19:30N 39°53' W 075°08'4 8.3
2017-Nov-15 19:00N 39°52' W 075°14'4 8.6
2017-Nov-15 18:31N 39°51' W 075°19'4 8.3
2017-Nov-15 18:01N 39°49' W 075°24'1 2.0
2017-Nov-15 17:30N 39°48' W 075°25'0 0.1
2017-Nov-15 17:00N 39°48' W 075°25'1 1.2
2017-Nov-15 16:31N 39°49' W 075°24'3 5.6
2017-Nov-15 16:00N 39°50' W 075°21'3 6.1
2017-Nov-15 15:31N 39°51' W 075°17'4 7.9
2017-Nov-15 15:01N 39°52' W 075°13'1 2.8
2017-Nov-15 14:31N 39°53' W 075°11'0 0.0
2017-Nov-15 14:01N 39°53' W 075°11'0 0.0
2017-Nov-15 13:30N 39°53' W 075°11'0 0.0
2017-Nov-15 13:00N 39°53' W 075°11'0 0.0
2017-Nov-15 12:30N 39°53' W 075°11'0 0.0
2017-Nov-15 12:00N 39°53' W 075°11'0 0.0
2017-Nov-15 11:31N 39°53' W 075°11'0 0.0
2017-Nov-15 11:01N 39°53' W 075°11'0 0.0
2017-Nov-15 10:31N 39°53' W 075°11'0 0.0
2017-Nov-15 10:00N 39°53' W 075°11'0 0.0
2017-Nov-15 09:31N 39°53' W 075°11'0 0.0
2017-Nov-15 09:00N 39°53' W 075°11'0 0.0
2017-Nov-15 08:31N 39°53' W 075°11'0 0.0
2017-Nov-15 08:01N 39°53' W 075°11'0 0.0
2017-Nov-15 07:30N 39°53' W 075°11'0 0.0
2017-Nov-15 07:01N 39°53' W 075°11'0 0.0
2017-Nov-15 06:30N 39°53' W 075°11'0 0.0
2017-Nov-15 06:01N 39°53' W 075°11'0 0.0
2017-Nov-15 05:31N 39°53' W 075°11'0 0.0
2017-Nov-15 05:00N 39°53' W 075°11'0 0.0
2017-Nov-15 04:30N 39°53' W 075°11'0 0.0
2017-Nov-15 04:01N 39°53' W 075°11'0 0.0
2017-Nov-15 03:31N 39°53' W 075°11'0 0.0
2017-Nov-15 03:00N 39°53' W 075°11'0 0.0
2017-Nov-15 02:30N 39°53' W 075°11'0 0.0
2017-Nov-15 02:01N 39°53' W 075°11'0 0.0
2017-Nov-15 01:31N 39°53' W 075°11'0 0.0
2017-Nov-15 01:00N 39°53' W 075°11'0 0.0
2017-Nov-15 00:30N 39°53' W 075°11'0 0.0
2017-Nov-15 00:01N 39°53' W 075°11'0 0.0
2017-Nov-14 23:31N 39°53' W 075°11'0 0.0
2017-Nov-14 23:00N 39°53' W 075°11'0 0.0
2017-Nov-14 22:31N 39°53' W 075°11'0 0.0
2017-Nov-14 22:01N 39°53' W 075°11'0 0.0
2017-Nov-14 21:30N 39°53' W 075°11'0 0.0
2017-Nov-14 21:00N 39°53' W 075°11'0 0.0
2017-Nov-14 20:31N 39°53' W 075°11'2 4.6
2017-Nov-14 20:01N 39°52' W 075°14'4 8.9
2017-Nov-14 19:30N 39°51' W 075°19'4 8.4
2017-Nov-14 19:01N 39°49' W 075°24'1 1.6
2017-Nov-14 18:31N 39°48' W 075°25'0 0.0
2017-Nov-14 18:00N 39°48' W 075°25'1 2.5
2017-Nov-14 17:31N 39°48' W 075°26'0 0.2
2017-Nov-14 17:01N 39°48' W 075°26'1 1.3
2017-Nov-14 16:31N 39°47' W 075°27'5 9.9
2017-Nov-14 16:01N 39°43' W 075°30'1 1.2
2017-Nov-14 15:31N 39°43' W 075°31'0 0.0
2017-Nov-14 15:01N 39°43' W 075°31'0 0.0
2017-Nov-14 14:31N 39°43' W 075°31'0 0.0
2017-Nov-14 14:01N 39°43' W 075°31'0 0.0
2017-Nov-14 13:30N 39°43' W 075°31'0 0.0
2017-Nov-14 13:00N 39°43' W 075°31'0 0.0
2017-Nov-14 12:30N 39°43' W 075°31'0 0.0
2017-Nov-14 12:01N 39°43' W 075°31'0 0.0
2017-Nov-14 11:30N 39°43' W 075°31'0 0.0
2017-Nov-14 11:01N 39°43' W 075°31'0 0.0
2017-Nov-14 10:30N 39°43' W 075°31'0 0.3
2017-Nov-14 10:01N 39°43' W 075°31'0 0.3
2017-Nov-14 09:31N 39°43' W 075°31'0 0.0
2017-Nov-14 09:00N 39°43' W 075°31'0 0.0
2017-Nov-14 08:30N 39°43' W 075°31'0 0.0
2017-Nov-14 08:00N 39°43' W 075°31'0 0.0
2017-Nov-14 07:30N 39°43' W 075°31'0 0.0
2017-Nov-14 07:00N 39°43' W 075°31'0 0.0
2017-Nov-14 06:30N 39°43' W 075°31'0 0.0
2017-Nov-14 06:00N 39°43' W 075°31'0 0.0
2017-Nov-14 05:30N 39°43' W 075°31'0 0.0
2017-Nov-14 05:00N 39°43' W 075°31'0 0.0
2017-Nov-14 04:30N 39°43' W 075°31'0 0.0
2017-Nov-14 04:00N 39°43' W 075°31'0 0.0
2017-Nov-14 03:30N 39°43' W 075°31'0 0.0
2017-Nov-14 03:00N 39°43' W 075°31'0 0.0
2017-Nov-14 02:30N 39°43' W 075°31'0 0.5
2017-Nov-14 02:00N 39°43' W 075°31'1 1.2
2017-Nov-14 01:31N 39°43' W 075°32'0 0.8
2017-Nov-14 01:01N 39°43' W 075°31'0 0.0
2017-Nov-14 00:30N 39°43' W 075°31'0 0.0
2017-Nov-14 00:01N 39°43' W 075°31'0 0.0
2017-Nov-13 23:31N 39°43' W 075°31'1 2.1
2017-Nov-13 23:01N 39°42' W 075°31'612.5
2017-Nov-13 22:31N 39°37' W 075°36'4 8.2
2017-Nov-13 22:00N 39°34' W 075°33'9 0.5
2017-Nov-13 02:00N 39°43' W 075°31'0 0.0
2017-Nov-13 01:31N 39°43' W 075°31'0 0.0
2017-Nov-13 01:01N 39°43' W 075°31'0 0.0
2017-Nov-13 00:31N 39°43' W 075°31'0 0.0
2017-Nov-13 00:00N 39°43' W 075°31'0 0.0
2017-Nov-12 23:31N 39°43' W 075°31'0 0.0
2017-Nov-12 23:01N 39°43' W 075°31'0 0.0
2017-Nov-12 22:30N 39°43' W 075°31'0 0.0
2017-Nov-12 22:01N 39°43' W 075°31'4 7.7
2017-Nov-12 21:31N 39°46' W 075°28'4 7.2
2017-Nov-12 21:01N 39°48' W 075°25'0 0.4
2017-Nov-12 20:31N 39°48' W 075°25'0 1.0
2017-Nov-12 20:01N 39°49' W 075°24'1 1.6
2017-Nov-12 19:30N 39°48' W 075°25'0 0.9
2017-Nov-12 19:00N 39°48' W 075°26'0 0.0
2017-Nov-12 18:30N 39°48' W 075°26'0 0.0
2017-Nov-12 18:01N 39°48' W 075°26'0 0.0
2017-Nov-12 17:31N 39°48' W 075°26'0 0.0
2017-Nov-12 17:00N 39°48' W 075°26'0 0.0
2017-Nov-12 16:31N 39°48' W 075°26'0 0.0
2017-Nov-12 16:00N 39°48' W 075°26'0 0.0
2017-Nov-12 15:31N 39°48' W 075°26'0 0.0
2017-Nov-12 15:00N 39°48' W 075°26'0 0.0
2017-Nov-12 14:30N 39°48' W 075°26'0 0.0
2017-Nov-12 14:01N 39°48' W 075°26'0 0.0
2017-Nov-12 13:31N 39°48' W 075°26'0 0.3
2017-Nov-12 13:00N 39°48' W 075°26'0 0.4
2017-Nov-12 12:31N 39°48' W 075°26'1 1.3
2017-Nov-12 12:01N 39°48' W 075°25'1 1.8
2017-Nov-12 11:31N 39°48' W 075°26'0 0.2
2017-Nov-12 11:00N 39°48' W 075°26'0 0.0
2017-Nov-12 10:31N 39°48' W 075°26'0 0.0
2017-Nov-12 10:01N 39°48' W 075°26'1 1.9
2017-Nov-12 09:31N 39°47' W 075°27'611.0
2017-Nov-12 09:00N 39°43' W 075°31'0 0.4
2017-Nov-12 08:30N 39°43' W 075°31'1 1.3
2017-Nov-12 08:00N 39°43' W 075°32'0 0.6
2017-Nov-12 07:30N 39°43' W 075°31'1 1.8
2017-Nov-12 07:01N 39°42' W 075°31'2 3.4
2017-Nov-12 06:31N 39°41' W 075°32'2 4.9
2017-Nov-12 06:01N 39°43' W 075°31'0 0.0
2017-Nov-12 05:31N 39°43' W 075°31'0 0.0
2017-Nov-12 05:01N 39°43' W 075°31'0 0.0
2017-Nov-12 04:31N 39°43' W 075°31'0 0.0
2017-Nov-12 04:01N 39°43' W 075°31'0 0.0
2017-Nov-12 03:31N 39°43' W 075°31'0 0.0
2017-Nov-12 03:01N 39°43' W 075°31'0 0.0
2017-Nov-12 02:31N 39°43' W 075°31'0 0.0
2017-Nov-12 02:00N 39°43' W 075°31'0 0.0
2017-Nov-12 01:30N 39°43' W 075°31'0 0.0
2017-Nov-12 01:01N 39°43' W 075°31'0 0.0
2017-Nov-12 00:31N 39°43' W 075°31'0 0.0
2017-Nov-12 00:01N 39°43' W 075°31'0 0.0
2017-Nov-11 23:31N 39°43' W 075°31'0 0.4
2017-Nov-11 23:00N 39°43' W 075°31'0 0.2
2017-Nov-11 22:31N 39°43' W 075°31'0 0.4
2017-Nov-11 22:01N 39°43' W 075°31'0 0.6
2017-Nov-11 21:31N 39°43' W 075°31'0 0.0
2017-Nov-11 21:00N 39°43' W 075°31'0 0.0
2017-Nov-11 20:31N 39°43' W 075°31'0 0.0
2017-Nov-11 20:00N 39°43' W 075°31'0 0.0
2017-Nov-11 19:30N 39°43' W 075°31'0 0.0
2017-Nov-11 19:00N 39°43' W 075°31'0 0.0
2017-Nov-11 18:30N 39°43' W 075°31'0 0.0
2017-Nov-11 18:00N 39°43' W 075°31'0 0.0
2017-Nov-11 17:31N 39°43' W 075°31'0 0.0
2017-Nov-11 17:00N 39°43' W 075°31'0 0.0
2017-Nov-11 16:31N 39°43' W 075°31'0 0.0
2017-Nov-11 16:00N 39°43' W 075°31'0 0.0
2017-Nov-11 15:31N 39°43' W 075°31'0 0.0
2017-Nov-11 15:00N 39°43' W 075°31'0 0.0
2017-Nov-11 14:30N 39°43' W 075°31'0 0.0
2017-Nov-11 14:00N 39°43' W 075°31'2 4.2
2017-Nov-11 13:30N 39°41' W 075°32'510.4
2017-Nov-11 13:00N 39°37' W 075°36'2 4.1
2017-Nov-11 12:31N 39°35' W 075°36'0 0.0
2017-Nov-11 12:01N 39°35' W 075°36'0 0.5
2017-Nov-11 11:31N 39°35' W 075°35'2 4.1
2017-Nov-11 11:01N 39°34' W 075°33'2 4.1
2017-Nov-11 10:31N 39°36' W 075°34'1 2.5
2017-Nov-11 10:00N 39°35' W 075°35'3 6.2
2017-Nov-11 09:31N 39°38' W 075°36'510.4
2017-Nov-11 09:01N 39°42' W 075°31'1 2.1
2017-Nov-11 08:30N 39°43' W 075°31'0 0.0
2017-Nov-11 08:00N 39°43' W 075°31'0 0.0
2017-Nov-11 07:30N 39°43' W 075°31'0 0.0
2017-Nov-11 07:01N 39°43' W 075°31'0 0.0
2017-Nov-11 06:30N 39°43' W 075°31'0 0.0
2017-Nov-11 06:01N 39°43' W 075°31'0 0.0
2017-Nov-11 05:31N 39°43' W 075°31'0 0.0
2017-Nov-11 05:01N 39°43' W 075°31'0 0.0
2017-Nov-11 04:30N 39°43' W 075°31'0 0.0
2017-Nov-11 04:00N 39°43' W 075°31'0 0.0
2017-Nov-11 03:30N 39°43' W 075°31'0 0.0
2017-Nov-11 03:01N 39°43' W 075°31'0 0.0
2017-Nov-11 02:31N 39°43' W 075°31'0 0.0
2017-Nov-11 02:01N 39°43' W 075°31'1 1.1
2017-Nov-11 01:31N 39°43' W 075°31'0 0.1
2017-Nov-11 01:00N 39°43' W 075°31'0 0.0
2017-Nov-11 00:31N 39°43' W 075°31'1 1.3
2017-Nov-11 00:01N 39°43' W 075°31'0 0.1
2017-Nov-10 23:31N 39°43' W 075°31'1 2.1
2017-Nov-10 23:00N 39°42' W 075°31'1 1.7
2017-Nov-10 22:31N 39°43' W 075°31'0 0.0
2017-Nov-10 22:00N 39°43' W 075°31'0 0.0
2017-Nov-10 21:30N 39°43' W 075°31'2 3.3
2017-Nov-10 21:01N 39°44' W 075°30'4 8.8
2017-Nov-10 20:30N 39°48' W 075°26'2 3.1
2017-Nov-10 20:01N 39°49' W 075°24'0 0.0
2017-Nov-10 19:30N 39°49' W 075°24'0 0.5
2017-Nov-10 19:01N 39°48' W 075°24'2 4.0
2017-Nov-10 18:30N 39°47' W 075°27'0 0.1
2017-Nov-10 18:00N 39°47' W 075°27'2 4.0
2017-Nov-10 17:30N 39°49' W 075°25'1 1.9
2017-Nov-10 17:01N 39°48' W 075°26'3 6.2
2017-Nov-10 16:30N 39°46' W 075°29'3 6.6
2017-Nov-10 16:00N 39°43' W 075°31'0 0.7
2017-Nov-10 15:30N 39°43' W 075°31'0 0.0
2017-Nov-10 15:00N 39°43' W 075°31'0 0.0
2017-Nov-10 14:31N 39°43' W 075°31'0 0.0
2017-Nov-10 14:01N 39°43' W 075°31'0 0.0
2017-Nov-10 13:30N 39°43' W 075°31'0 0.0
2017-Nov-10 13:01N 39°43' W 075°31'0 0.0
2017-Nov-10 12:31N 39°43' W 075°31'0 0.0
2017-Nov-10 12:01N 39°43' W 075°31'0 0.4
2017-Nov-10 11:31N 39°43' W 075°31'0 0.0
2017-Nov-10 11:00N 39°43' W 075°31'0 1.0
2017-Nov-10 10:31N 39°43' W 075°30'1 1.5
2017-Nov-10 10:01N 39°43' W 075°31'0 0.0
2017-Nov-10 09:30N 39°43' W 075°31'0 0.0
2017-Nov-10 09:01N 39°43' W 075°31'0 0.0
2017-Nov-10 08:31N 39°43' W 075°31'0 0.0
2017-Nov-10 08:00N 39°43' W 075°31'0 0.0
2017-Nov-10 07:31N 39°43' W 075°31'0 0.0
2017-Nov-10 07:01N 39°43' W 075°31'1 1.3
2017-Nov-10 06:30N 39°43' W 075°30'5 9.7
2017-Nov-10 06:00N 39°47' W 075°27'3 5.0
2017-Nov-10 05:30N 39°49' W 075°24'0 0.0
2017-Nov-10 05:00N 39°49' W 075°24'0 0.0
2017-Nov-10 04:30N 39°49' W 075°24'0 0.0
2017-Nov-10 04:01N 39°49' W 075°24'0 0.0
2017-Nov-10 03:31N 39°49' W 075°24'5 9.1
2017-Nov-10 03:00N 39°51' W 075°19'4 8.9
2017-Nov-10 02:31N 39°52' W 075°13'0 0.6
2017-Nov-10 02:01N 39°52' W 075°13'1 2.3
2017-Nov-10 01:30N 39°53' W 075°12'1 1.3
2017-Nov-10 01:00N 39°53' W 075°11'0 0.0
2017-Nov-10 00:31N 39°53' W 075°11'  

Dump ship's entire track history